createdAt,value
2018-06-14T00:02:25.075Z,81.90
2018-06-14T00:07:55.737Z,81.90
2018-06-14T00:13:26.054Z,82.00
2018-06-14T00:18:55.708Z,81.90
2018-06-14T00:24:25.826Z,81.80
2018-06-14T00:29:55.788Z,82.20
2018-06-14T00:35:25.628Z,82.10
2018-06-14T00:40:55.393Z,82.00
2018-06-14T00:46:25.180Z,82.30
2018-06-14T00:51:55.064Z,82.10
2018-06-14T00:57:29.565Z,82.20
2018-06-14T01:02:58.804Z,81.90
2018-06-14T01:08:28.287Z,81.70
2018-06-14T01:13:57.475Z,81.60
2018-06-14T01:19:26.647Z,81.70
2018-06-14T01:24:56.525Z,81.20
2018-06-14T01:30:25.767Z,81.50
2018-06-14T01:35:55.691Z,81.20
2018-06-14T01:41:25.707Z,80.90
2018-06-14T01:46:55.456Z,80.90
2018-06-14T01:52:24.946Z,80.50
2018-06-14T01:57:54.344Z,80.70
2018-06-14T02:03:24.559Z,81.10
2018-06-14T02:08:54.204Z,80.30
2018-06-14T02:14:24.531Z,80.50
2018-06-14T02:19:54.100Z,80.60
2018-06-14T02:25:24.473Z,80.80
2018-06-14T02:30:53.915Z,80.50
2018-06-14T02:36:23.673Z,80.40
2018-06-14T02:42:03.398Z,80.20
2018-06-14T02:47:32.605Z,80.60
2018-06-14T02:53:01.897Z,80.70
2018-06-14T02:58:31.132Z,80.70
2018-06-14T03:04:00.303Z,81.00
2018-06-14T03:09:29.604Z,80.70
2018-06-14T03:14:58.837Z,80.60
2018-06-14T03:20:28.967Z,81.20
2018-06-14T03:25:59.644Z,81.60
2018-06-14T03:31:28.876Z,81.90
2018-06-14T03:36:58.199Z,82.30
2018-06-14T03:42:27.426Z,82.40
2018-06-14T03:53:25.678Z,83.00
2018-06-14T03:58:55.002Z,83.00
2018-06-14T04:04:24.405Z,83.30
2018-06-14T04:09:54.273Z,83.40
2018-06-14T04:15:24.993Z,83.40
2018-06-14T04:20:55.447Z,83.50
2018-06-14T04:26:24.868Z,83.40
2018-06-14T04:31:54.603Z,83.40
2018-06-14T04:37:23.863Z,83.30
2018-06-14T04:42:54.187Z,83.30
2018-06-14T04:48:25.172Z,83.30
2018-06-14T04:53:55.510Z,83.30
2018-06-14T04:59:25.195Z,83.00
2018-06-14T05:04:54.455Z,82.80
2018-06-14T05:10:24.120Z,82.40
2018-06-14T05:15:54.396Z,82.00
2018-06-14T05:21:23.883Z,81.40
2018-06-14T05:26:53.491Z,81.10
2018-06-14T05:32:23.106Z,79.10
2018-06-14T05:37:52.557Z,77.90
2018-06-14T05:43:22.554Z,77.00
2018-06-14T05:48:53.103Z,77.10
2018-06-14T05:54:23.896Z,76.30
2018-06-14T05:59:54.752Z,75.10
2018-06-14T06:05:24.678Z,74.60
2018-06-14T06:10:53.961Z,74.20
2018-06-14T06:16:23.558Z,73.10
2018-06-14T06:22:00.675Z,71.70
2018-06-14T06:27:29.896Z,70.50
2018-06-14T06:32:59.088Z,70.70
2018-06-14T06:38:28.355Z,70.10
2018-06-14T06:43:57.549Z,70.80
2018-06-14T06:49:26.783Z,69.40
2018-06-14T06:54:56.231Z,69.20
2018-06-14T07:00:25.897Z,69.00
2018-06-14T07:06:02.134Z,68.60
2018-06-14T07:11:31.402Z,68.00
2018-06-14T07:17:00.613Z,67.20
2018-06-14T07:22:29.831Z,65.70
2018-06-14T07:27:59.030Z,64.50
2018-06-14T07:33:28.276Z,63.10
2018-06-14T07:38:57.524Z,63.30
2018-06-14T07:44:26.681Z,66.00
2018-06-14T07:50:00.801Z,64.90
2018-06-14T07:55:30.163Z,65.00
2018-06-14T08:00:59.424Z,65.10
2018-06-14T08:06:28.716Z,65.60
2018-06-14T08:11:57.905Z,65.00
2018-06-14T08:17:27.290Z,65.30
2018-06-14T08:22:56.544Z,64.80
2018-06-14T08:28:25.717Z,64.80
2018-06-14T08:33:55.980Z,64.10
2018-06-14T08:39:25.229Z,63.60
2018-06-14T08:44:56.432Z,61.70
2018-06-14T08:50:25.763Z,61.70
2018-06-14T08:55:55.516Z,62.50
2018-06-14T09:01:24.914Z,61.40
2018-06-14T09:06:54.851Z,61.70
2018-06-14T09:12:24.837Z,60.60
2018-06-14T09:17:55.007Z,60.10
2018-06-14T09:23:26.693Z,59.50
2018-06-14T09:34:24.995Z,59.60
2018-06-14T09:39:54.386Z,59.50
2018-06-14T09:45:24.248Z,59.30
2018-06-14T09:50:53.646Z,58.30
2018-06-14T09:56:25.119Z,58.60
2018-06-14T10:01:54.719Z,58.20
2018-06-14T10:07:23.965Z,57.50
2018-06-14T10:12:53.247Z,57.70
2018-06-14T10:18:22.763Z,57.50
2018-06-14T10:23:56.951Z,57.30
2018-06-14T10:29:26.178Z,56.50
2018-06-14T10:34:55.542Z,57.00
2018-06-14T10:40:24.777Z,56.30
2018-06-14T10:45:54.371Z,56.90
2018-06-14T10:56:53.672Z,56.00
2018-06-14T11:02:23.110Z,55.20
2018-06-14T11:07:52.485Z,55.70
2018-06-14T11:13:22.225Z,55.00
2018-06-14T11:18:51.606Z,56.00
2018-06-14T11:24:20.994Z,55.10
2018-06-14T11:29:52.820Z,55.70
2018-06-14T11:35:23.728Z,55.90
2018-06-14T11:40:55.829Z,55.70
2018-06-14T11:46:25.117Z,55.80
2018-06-14T11:51:54.430Z,55.10
2018-06-14T11:57:23.656Z,56.00
2018-06-14T12:02:53.452Z,55.40
2018-06-14T12:08:23.451Z,54.60
2018-06-14T12:14:00.976Z,56.20
2018-06-14T12:19:30.183Z,54.60
2018-06-14T12:25:00.774Z,54.70
2018-06-14T12:30:30.069Z,54.00
2018-06-14T12:35:59.316Z,55.30
2018-06-14T12:41:28.533Z,54.60
2018-06-14T12:52:33.224Z,53.50
2018-06-14T12:58:02.457Z,53.30
2018-06-14T13:03:31.939Z,52.60
2018-06-14T13:09:01.271Z,52.30
2018-06-14T13:14:30.596Z,53.50
2018-06-14T13:19:59.771Z,52.10
2018-06-14T13:25:30.106Z,52.10
2018-06-14T13:30:59.397Z,52.10
2018-06-14T13:36:29.052Z,53.10
2018-06-14T13:47:27.349Z,52.20
2018-06-14T13:52:56.626Z,51.70
2018-06-14T13:58:25.902Z,51.80
2018-06-14T14:03:56.003Z,51.00
2018-06-14T14:09:25.334Z,50.80
2018-06-14T14:14:54.604Z,50.30
2018-06-14T14:20:24.906Z,50.50
2018-06-14T14:25:54.103Z,51.60
2018-06-14T14:31:23.475Z,50.20
2018-06-14T14:36:54.905Z,50.50
2018-06-14T14:42:24.208Z,50.30
2018-06-14T14:47:54.073Z,50.30
2018-06-14T14:53:23.388Z,51.30
2018-06-14T14:58:55.733Z,47.90
2018-06-14T15:04:26.410Z,40.20
2018-06-14T15:09:55.801Z,35.60
2018-06-14T15:15:25.224Z,37.60
2018-06-14T15:20:55.137Z,39.80
2018-06-14T15:26:24.683Z,38.70
2018-06-14T15:31:55.011Z,41.80
2018-06-14T15:37:24.286Z,44.60
2018-06-14T15:42:53.666Z,44.40
2018-06-14T15:48:23.841Z,44.70
2018-06-14T15:53:54.197Z,46.30
2018-06-14T15:59:27.467Z,46.90
2018-06-14T16:05:09.007Z,48.00
2018-06-14T16:10:38.312Z,45.70
2018-06-14T16:16:07.701Z,45.00
2018-06-14T16:21:37.036Z,47.10
2018-06-14T16:27:06.350Z,48.00
2018-06-14T16:32:35.676Z,48.80
2018-06-14T16:38:06.041Z,49.30
2018-06-14T16:43:35.425Z,49.50
2018-06-14T16:49:05.451Z,50.20
2018-06-14T16:54:35.867Z,49.60
2018-06-14T17:00:06.076Z,50.20
2018-06-14T17:05:35.426Z,50.60
2018-06-14T17:11:04.738Z,50.60
2018-06-14T17:16:34.983Z,51.10
2018-06-14T17:22:04.218Z,50.80
2018-06-14T17:27:33.455Z,50.80
2018-06-14T17:33:02.783Z,51.30
2018-06-14T17:38:32.137Z,52.10
2018-06-14T17:44:01.679Z,51.30
2018-06-14T17:54:59.951Z,52.70
2018-06-14T18:00:29.197Z,53.50
2018-06-14T18:05:58.501Z,52.40
2018-06-14T18:11:27.857Z,52.80
2018-06-14T18:16:57.181Z,53.10
2018-06-14T18:22:26.516Z,53.00
2018-06-14T18:27:58.341Z,54.10
2018-06-14T18:33:27.787Z,54.20
2018-06-14T18:38:58.459Z,55.10
2018-06-14T18:44:27.710Z,54.80
2018-06-14T18:49:57.388Z,55.20
2018-06-14T18:55:30.200Z,55.10
2018-06-14T19:01:07.393Z,55.50
2018-06-14T19:06:36.659Z,55.80
2018-06-14T19:12:05.970Z,56.70
2018-06-14T19:17:36.513Z,56.80
2018-06-14T19:23:05.709Z,57.30
2018-06-14T19:28:35.018Z,57.50
2018-06-14T19:39:33.394Z,58.20
2018-06-14T19:45:02.724Z,58.60
2018-06-14T19:50:31.978Z,59.30
2018-06-14T19:56:02.225Z,59.50
2018-06-14T20:01:31.530Z,59.50
2018-06-14T20:07:00.763Z,60.00
2018-06-14T20:12:30.026Z,60.30
2018-06-14T20:18:00.088Z,61.30
2018-06-14T20:23:29.465Z,62.00
2018-06-14T20:28:58.663Z,61.10
2018-06-14T20:34:27.900Z,61.50
2018-06-14T20:39:57.099Z,61.60
2018-06-14T20:45:26.496Z,62.10
2018-06-14T20:50:55.802Z,62.10
2018-06-14T20:56:25.168Z,62.90
2018-06-14T21:01:54.698Z,62.90
2018-06-14T21:07:24.531Z,63.70
2018-06-14T21:12:54.816Z,64.00
2018-06-14T21:18:24.318Z,64.50
2018-06-14T21:23:54.187Z,65.10
2018-06-14T21:29:24.585Z,65.40
2018-06-14T21:34:53.819Z,66.20
2018-06-14T21:40:23.647Z,68.10
2018-06-14T21:45:53.354Z,67.00
2018-06-14T21:51:23.167Z,67.70
2018-06-14T21:56:52.877Z,67.40
2018-06-14T22:02:22.661Z,67.90
2018-06-14T22:07:53.012Z,68.10
2018-06-14T22:13:22.280Z,68.10
2018-06-14T22:18:51.852Z,68.30
2018-06-14T22:24:21.487Z,68.40
2018-06-14T22:29:51.314Z,68.90
2018-06-14T22:35:29.807Z,69.10
2018-06-14T22:40:59.032Z,69.20
2018-06-14T22:46:28.260Z,69.60
2018-06-14T22:52:51.404Z,69.60
2018-06-14T22:58:21.470Z,70.10
2018-06-14T23:10:41.116Z,70.60
2018-06-14T23:21:48.147Z,71.30
2018-06-14T23:27:18.881Z,71.40
2018-06-14T23:32:49.681Z,71.50
2018-06-14T23:38:19.868Z,71.60
2018-06-14T23:43:49.677Z,71.80
2018-06-14T23:49:19.962Z,71.90
2018-06-14T23:54:50.448Z,72.40
